Time;durP1;ratioP1;P1;durP2;ratioP2;P2;SDS_P1;SDS_P2;PMS_P1;PMS_P2;Temp;Humidity;BMP_temperature;BMP_pressure;BME280_temperature;BME280_humidity;BME280_pressure;Samples;Min_cycle;Max_cycle;Signal;HPM_P1;HPM_P2
2022/06/23 00:01:20;;;;;;;2.30;1.50;;;13.80;99.90;;;;;;5010161;28;20022;-62
2022/06/23 00:03:50;;;;;;;3.83;1.77;;;13.70;99.90;;;;;;5004585;28;20034;-62
2022/06/23 00:06:38;;;;;;;4.47;1.80;;;13.80;99.90;;;;;;5010262;28;20136;-62
2022/06/23 00:09:40;;;;;;;2.42;1.10;;;13.70;99.90;;;;;;5007997;28;20030;-63
2022/06/23 00:12:18;;;;;;;3.05;1.30;;;13.80;99.90;;;;;;5000545;28;20116;-62
2022/06/23 00:14:49;;;;;;;1.40;1.30;;;13.80;99.90;;;;;;5006774;28;20038;-61
2022/06/23 00:17:17;;;;;;;4.15;2.00;;;13.70;99.90;;;;;;5010088;28;20113;-60
2022/06/23 00:19:44;;;;;;;3.10;1.52;;;13.70;99.90;;;;;;5007923;28;20406;-61
2022/06/23 00:22:12;;;;;;;1.98;1.33;;;13.60;99.90;;;;;;5009497;28;20038;-61
2022/06/23 00:24:40;;;;;;;4.88;1.50;;;13.50;99.90;;;;;;5007663;28;20069;-61
2022/06/23 00:27:13;;;;;;;3.88;1.60;;;13.60;99.90;;;;;;5007965;28;20037;-62
2022/06/23 00:29:39;;;;;;;2.08;1.45;;;13.50;99.90;;;;;;5001904;28;20050;-61
2022/06/23 00:32:05;;;;;;;2.13;1.40;;;13.40;99.90;;;;;;5009691;28;20584;-61
2022/06/23 00:34:56;;;;;;;4.55;2.05;;;13.50;99.90;;;;;;5007647;28;20117;-62
2022/06/23 00:37:22;;;;;;;4.35;1.67;;;13.60;99.90;;;;;;5007496;28;20022;-61
2022/06/23 00:39:55;;;;;;;4.68;1.75;;;13.60;99.90;;;;;;5007782;28;20054;-61
2022/06/23 00:42:27;;;;;;;3.35;1.50;;;13.60;99.90;;;;;;5007307;28;20022;-61
2022/06/23 00:45:07;;;;;;;;;;;13.60;99.90;;;;;;5008283;28;20029;-61
2022/06/23 00:47:45;;;;;;;3.33;1.50;;;13.60;99.90;;;;;;5007985;28;20029;-60
2022/06/23 00:50:32;;;;;;;3.17;2.03;;;13.50;99.90;;;;;;5013371;28;20478;-61
2022/06/23 00:53:00;;;;;;;2.30;1.60;;;13.40;99.90;;;;;;5013261;28;20034;-61
2022/06/23 00:55:38;;;;;;;7.20;1.92;;;13.40;99.90;;;;;;5013023;28;20030;-61
2022/06/23 00:58:16;;;;;;;3.95;1.42;;;13.50;99.90;;;;;;5012886;28;20029;-61
2022/06/23 01:00:43;;;;;;;2.72;1.58;;;13.50;99.90;;;;;;5011528;28;20022;-61
2022/06/23 01:03:11;;;;;;;3.03;1.52;;;13.70;99.90;;;;;;5013123;28;20390;-62
2022/06/23 01:05:57;;;;;;;2.25;1.15;;;13.90;99.90;;;;;;5011314;28;20053;-62
2022/06/23 01:08:56;;;;;;;3.47;1.48;;;13.90;99.90;;;;;;5012872;28;20049;-61
2022/06/23 01:11:28;;;;;;;2.53;0.98;;;14.00;99.90;;;;;;4995938;28;20129;-61
2022/06/23 01:14:15;;;;;;;2.67;1.58;;;14.00;99.90;;;;;;5026678;28;20042;-61
2022/06/23 01:17:01;;;;;;;4.07;1.33;;;14.00;99.90;;;;;;5001715;28;20022;-62
2022/06/23 01:19:50;;;;;;;4.63;1.40;;;14.10;99.90;;;;;;5012468;28;20046;-62
2022/06/23 01:22:50;;;;;;;7.82;1.85;;;14.10;99.90;;;;;;5003972;28;20026;-62
2022/06/23 01:25:40;;;;;;;2.72;2.15;;;14.30;99.90;;;;;;5007675;28;20036;-62
2022/06/23 01:28:21;;;;;;;2.97;1.20;;;14.30;99.90;;;;;;5007393;28;20118;-62
2022/06/23 01:30:55;;;;;;;2.85;1.25;;;14.40;99.90;;;;;;5026146;28;20141;-62
2022/06/23 01:33:27;;;;;;;3.20;1.27;;;14.40;99.90;;;;;;5012407;28;20511;-62
2022/06/23 01:36:07;;;;;;;3.83;1.60;;;14.40;99.90;;;;;;5006102;28;20037;-62
2022/06/23 01:38:39;;;;;;;3.03;1.50;;;14.50;99.90;;;;;;5010168;28;20057;-62
2022/06/23 01:41:14;;;;;;;2.08;1.10;;;14.50;99.90;;;;;;5011863;28;20076;-61
2022/06/23 01:43:46;;;;;;;5.28;1.67;;;14.40;99.90;;;;;;5010467;28;20045;-62
2022/06/23 01:46:22;;;;;;;5.63;1.30;;;14.50;99.90;;;;;;5012582;28;20486;-62
2022/06/23 01:49:20;;;;;;;3.13;1.48;;;14.50;99.90;;;;;;5005452;28;20033;-62
2022/06/23 01:51:50;;;;;;;1.98;1.40;;;14.40;99.90;;;;;;5004472;28;20038;-62
2022/06/23 01:54:26;;;;;;;3.88;1.55;;;14.40;99.90;;;;;;5012317;28;20042;-62
2022/06/23 01:57:00;;;;;;;4.57;1.80;;;14.40;99.90;;;;;;5009943;28;20091;-62
2022/06/23 01:59:54;;;;;;;4.03;1.58;;;14.30;99.90;;;;;;5001247;28;20030;-62
2022/06/23 02:02:35;;;;;;;2.55;1.50;;;14.30;99.90;;;;;;5012177;28;20359;-61
2022/06/23 02:05:09;;;;;;;1.95;1.42;;;14.30;99.90;;;;;;4992794;28;20035;-61
2022/06/23 02:07:41;;;;;;;4.65;1.60;;;14.30;99.90;;;;;;5010253;28;20486;-62
2022/06/23 02:10:24;;;;;;;4.30;1.35;;;14.20;99.90;;;;;;5011746;28;20052;-62
2022/06/23 02:13:02;;;;;;;3.65;1.67;;;14.30;99.90;;;;;;5007040;28;20038;-62
2022/06/23 02:15:49;;;;;;;2.63;1.40;;;14.40;99.90;;;;;;5011766;28;20045;-61
2022/06/23 02:18:32;;;;;;;4.63;1.73;;;14.30;99.90;;;;;;5011671;28;20112;-61
2022/06/23 02:21:11;;;;;;;5.38;1.90;;;14.30;99.90;;;;;;5021737;28;20022;-62
2022/06/23 02:24:17;;;;;;;2.63;1.65;;;14.30;99.90;;;;;;4999502;28;20108;-61
2022/06/23 02:27:08;;;;;;;3.50;1.55;;;14.40;99.90;;;;;;5009324;28;20026;-62
2022/06/23 02:29:43;;;;;;;2.50;1.70;;;14.50;99.90;;;;;;5009993;28;20042;-62
2022/06/23 02:32:40;;;;;;;4.22;1.50;;;14.50;99.90;;;;;;5011601;28;20084;-62
2022/06/23 02:35:09;;;;;;;4.40;1.67;;;14.50;99.90;;;;;;5009419;28;20048;-62
2022/06/23 02:37:50;;;;;;;3.20;1.73;;;14.60;99.90;;;;;;5009816;28;20092;-62
2022/06/23 02:40:38;;;;;;;3.53;1.70;;;14.70;99.90;;;;;;5011446;28;20036;-61
2022/06/23 02:43:15;;;;;;;2.92;1.52;;;14.70;99.90;;;;;;5020240;28;20474;-62
2022/06/23 02:46:24;;;;;;;3.25;1.50;;;14.80;99.90;;;;;;4999878;28;20030;-62
2022/06/23 02:49:26;;;;;;;4.57;1.40;;;14.80;99.90;;;;;;4993865;28;20041;-60
2022/06/23 02:52:14;;;;;;;3.70;1.48;;;14.80;99.90;;;;;;5009189;28;20124;-61
2022/06/23 02:55:11;;;;;;;5.68;1.63;;;14.80;99.90;;;;;;5009312;28;20034;-61
2022/06/23 02:57:51;;;;;;;2.28;1.20;;;14.90;99.90;;;;;;5008241;28;20034;-61
2022/06/23 03:00:43;;;;;;;2.88;1.33;;;14.80;99.90;;;;;;5026134;28;20034;-62
2022/06/23 03:03:24;;;;;;;6.90;3.17;;;14.70;99.90;;;;;;5010143;28;20073;-62
2022/06/23 03:05:56;;;;;;;3.50;1.65;;;14.70;99.90;;;;;;5009370;28;20039;-62
2022/06/23 03:08:39;;;;;;;;;;;14.70;99.90;;;;;;5011313;28;20054;-62
2022/06/23 03:11:53;;;;;;;4.32;1.42;;;14.70;99.90;;;;;;5009869;28;19932;-60
2022/06/23 03:14:32;;;;;;;3.25;1.40;;;14.80;99.90;;;;;;5010548;28;20038;-61
2022/06/23 03:17:36;;;;;;;3.55;1.40;;;15.00;99.90;;;;;;5010897;28;20022;-62
2022/06/23 03:20:08;;;;;;;5.45;1.52;;;15.00;99.90;;;;;;5002463;28;20117;-60
2022/06/23 03:22:45;;;;;;;1.48;1.00;;;15.00;99.90;;;;;;5002128;28;20076;-60
2022/06/23 03:25:31;;;;;;;2.33;1.13;;;14.90;99.90;;;;;;5009977;28;20018;-61
2022/06/23 03:28:25;;;;;;;2.97;1.40;;;15.00;99.90;;;;;;5009998;28;20021;-60
2022/06/23 03:31:00;;;;;;;5.05;1.40;;;15.10;99.90;;;;;;5008663;28;20042;-62
2022/06/23 03:33:50;;;;;;;4.47;1.50;;;15.30;99.90;;;;;;5009031;28;20030;-62
2022/06/23 03:36:25;;;;;;;6.25;1.45;;;15.30;99.90;;;;;;5010187;28;20113;-61
2022/06/23 03:42:17;;;;;;;4.75;1.88;;;15.40;99.90;;;;;;5009718;28;20117;-62
2022/06/23 03:44:43;;;;;;;4.05;1.52;;;15.40;99.90;;;;;;5002254;28;20034;-62
2022/06/23 03:47:21;;;;;;;3.45;1.67;;;15.40;99.90;;;;;;5009019;28;20033;-61
2022/06/23 03:50:00;;;;;;;4.43;1.30;;;15.40;99.90;;;;;;5008384;28;20478;-61
2022/06/23 03:52:36;;;;;;;2.05;1.70;;;15.40;99.90;;;;;;5009088;28;20030;-61
2022/06/23 03:55:13;;;;;;;2.88;1.70;;;15.30;99.90;;;;;;5003500;28;20042;-61
2022/06/23 03:57:55;;;;;;;3.45;1.50;;;15.40;99.90;;;;;;5003622;28;20056;-62
2022/06/23 04:00:45;;;;;;;3.65;1.50;;;15.30;99.90;;;;;;5007307;28;20041;-62
2022/06/23 04:03:35;;;;;;;3.78;1.60;;;15.30;99.90;;;;;;5007478;28;20029;-62
2022/06/23 04:06:30;;;;;;;1.80;1.33;;;15.30;99.90;;;;;;5002382;28;20022;-62
2022/06/23 04:09:10;;;;;;;2.45;1.60;;;15.20;99.90;;;;;;5019079;28;20026;-62
2022/06/23 04:11:56;;;;;;;4.25;1.67;;;15.30;99.90;;;;;;5005094;28;20038;-62
2022/06/23 04:14:52;;;;;;;4.97;1.67;;;15.30;99.90;;;;;;5009571;28;20100;-62
2022/06/23 04:17:26;;;;;;;4.30;1.45;;;15.30;99.90;;;;;;5004806;28;20026;-62
2022/06/23 04:20:01;;;;;;;2.67;1.30;;;15.40;99.90;;;;;;5006023;28;20084;-62
2022/06/23 04:22:50;;;;;;;5.35;1.50;;;15.40;99.90;;;;;;5001128;28;20022;-62
2022/06/23 04:25:40;;;;;;;4.47;1.60;;;15.50;99.90;;;;;;5004194;28;20052;-62
2022/06/23 04:28:06;;;;;;;3.15;1.60;;;15.60;99.90;;;;;;5005119;28;20030;-62
2022/06/23 04:30:39;;;;;;;2.25;1.30;;;15.60;99.90;;;;;;5007898;28;20054;-60
2022/06/23 04:33:07;;;;;;;2.72;1.27;;;15.60;99.90;;;;;;5009025;28;20022;-62
2022/06/23 04:35:36;;;;;;;3.03;1.48;;;15.70;99.90;;;;;;5007681;28;20041;-61
2022/06/23 04:38:13;;;;;;;2.55;1.63;;;15.70;99.90;;;;;;5009795;28;20053;-62
2022/06/23 04:40:42;;;;;;;4.68;1.30;;;15.90;99.90;;;;;;4997978;28;20124;-62
2022/06/23 04:43:20;;;;;;;4.13;1.40;;;15.90;99.90;;;;;;5008924;28;20125;-62
2022/06/23 04:46:00;;;;;;;3.08;1.42;;;15.70;99.90;;;;;;4998278;28;20037;-62
2022/06/23 04:48:38;;;;;;;2.88;1.60;;;15.70;99.90;;;;;;5009031;28;20030;-61
2022/06/23 04:51:22;;;;;;;4.60;1.42;;;15.80;99.90;;;;;;5009565;28;20033;-62
2022/06/23 04:53:51;;;;;;;5.03;1.40;;;15.90;99.90;;;;;;5004452;28;20531;-62
2022/06/23 04:56:16;;;;;;;2.55;1.50;;;15.90;99.90;;;;;;5009136;28;20432;-62
2022/06/23 04:58:53;;;;;;;4.60;1.73;;;15.80;99.90;;;;;;5007810;28;20537;-62
2022/06/23 05:01:23;;;;;;;3.28;1.55;;;15.70;99.90;;;;;;5000426;28;20112;-61
2022/06/23 05:03:57;;;;;;;4.43;1.60;;;15.90;99.90;;;;;;5007611;28;20034;-62
2022/06/23 05:06:43;;;;;;;3.60;2.00;;;15.90;99.90;;;;;;4998153;28;20042;-61
2022/06/23 05:09:17;;;;;;;5.97;1.88;;;16.00;99.90;;;;;;5009333;28;20026;-62
2022/06/23 05:12:01;;;;;;;4.35;1.80;;;16.00;99.90;;;;;;5016339;28;20109;-61
2022/06/23 05:14:30;;;;;;;6.35;2.00;;;16.10;99.90;;;;;;5011458;28;20076;-61
2022/06/23 05:17:10;;;;;;;4.15;1.40;;;16.10;99.90;;;;;;4998960;28;20025;-61
2022/06/23 05:19:38;;;;;;;4.53;1.83;;;16.10;99.90;;;;;;5007493;28;20080;-62
2022/06/23 05:22:27;;;;;;;6.00;2.20;;;16.10;99.90;;;;;;5009190;28;20026;-62
2022/06/23 05:24:54;;;;;;;4.35;1.63;;;16.20;99.90;;;;;;5022563;28;20092;-61
2022/06/23 05:27:31;;;;;;;5.95;1.98;;;16.30;99.90;;;;;;5007345;28;20037;-62
2022/06/23 05:30:19;;;;;;;6.40;2.90;;;16.00;99.90;;;;;;5008744;28;20038;-62
2022/06/23 05:32:50;;;;;;;5.22;2.10;;;16.00;99.90;;;;;;5006985;28;20390;-62
2022/06/23 05:35:35;;;;;;;5.68;2.15;;;16.10;99.90;;;;;;5009911;28;20044;-62
2022/06/23 05:38:07;;;;;;;4.28;2.00;;;16.10;99.90;;;;;;5009786;28;20060;-62
2022/06/23 05:40:50;;;;;;;4.93;1.90;;;16.20;99.90;;;;;;5010870;28;20121;-61
2022/06/23 05:43:17;;;;;;;3.03;2.03;;;16.20;99.90;;;;;;5008057;28;20049;-62
2022/06/23 05:45:46;;;;;;;12.10;2.53;;;16.20;99.90;;;;;;5010861;28;20038;-61
2022/06/23 05:48:24;;;;;;;2.90;1.98;;;16.20;99.90;;;;;;5012348;28;20026;-61
2022/06/23 05:51:00;;;;;;;4.82;1.80;;;16.20;99.90;;;;;;5002126;28;20045;-62
2022/06/23 05:53:35;;;;;;;6.18;1.90;;;16.20;99.90;;;;;;5009106;28;20113;-63
2022/06/23 05:56:10;;;;;;;3.05;1.80;;;16.20;99.90;;;;;;5017574;28;20041;-61
2022/06/23 05:59:02;;;;;;;8.85;1.83;;;16.20;99.90;;;;;;5010438;28;20068;-62
2022/06/23 06:01:35;;;;;;;4.45;2.13;;;16.30;99.90;;;;;;5005115;28;20045;-62
2022/06/23 06:04:23;;;;;;;4.05;1.98;;;16.30;99.90;;;;;;5012105;28;20029;-63
2022/06/23 06:06:49;;;;;;;5.43;2.47;;;16.30;99.90;;;;;;5010289;28;20038;-61
2022/06/23 06:09:35;;;;;;;8.15;2.83;;;16.30;99.90;;;;;;5012017;28;20018;-62
2022/06/23 06:12:04;;;;;;;4.78;2.80;;;16.30;99.90;;;;;;5011497;28;20026;-61
2022/06/23 06:14:35;;;;;;;6.80;2.58;;;16.30;99.90;;;;;;5010975;28;20038;-61
2022/06/23 06:17:02;;;;;;;5.47;2.63;;;16.30;99.90;;;;;;5011863;28;20433;-62
2022/06/23 06:19:32;;;;;;;9.63;2.70;;;16.20;99.90;;;;;;5011349;28;20034;-61
2022/06/23 06:22:05;;;;;;;5.30;2.60;;;16.20;99.90;;;;;;5011772;28;20084;-62
2022/06/23 06:24:43;;;;;;;10.00;3.20;;;16.20;99.90;;;;;;5006880;28;20041;-62
2022/06/23 06:27:12;;;;;;;8.43;2.60;;;16.30;99.90;;;;;;5004905;28;20140;-62
2022/06/23 06:29:40;;;;;;;5.00;2.30;;;16.30;99.90;;;;;;5009678;28;20050;-62
2022/06/23 06:32:21;;;;;;;7.32;2.75;;;16.40;99.90;;;;;;5011602;28;20116;-63
2022/06/23 06:35:27;;;;;;;7.45;2.47;;;16.40;99.90;;;;;;5009637;28;20042;-62
2022/06/23 06:38:06;;;;;;;5.95;2.70;;;16.40;99.90;;;;;;5004611;28;20117;-61
2022/06/23 06:40:33;;;;;;;6.10;1.85;;;16.50;99.90;;;;;;4998440;28;20156;-61
2022/06/23 06:43:04;;;;;;;8.27;2.38;;;16.70;99.90;;;;;;5010711;28;20022;-62
2022/06/23 06:45:34;;;;;;;6.20;3.05;;;16.90;99.90;;;;;;5011231;28;20124;-63
2022/06/23 06:48:01;;;;;;;7.32;2.67;;;17.00;99.90;;;;;;5011189;28;20026;-62
2022/06/23 06:50:47;;;;;;;5.07;2.13;;;17.10;99.90;;;;;;5010671;28;20036;-62
2022/06/23 06:53:36;;;;;;;7.95;2.58;;;17.40;99.90;;;;;;5010568;28;20030;-62
2022/06/23 06:56:30;;;;;;;7.40;3.00;;;17.70;99.90;;;;;;5003146;28;20500;-62
2022/06/23 06:59:00;;;;;;;8.35;2.42;;;17.90;99.90;;;;;;5010944;28;20025;-62
2022/06/23 07:01:27;;;;;;;7.55;2.42;;;18.20;99.90;;;;;;5011456;28;20036;-62
2022/06/23 07:03:54;;;;;;;6.43;2.60;;;18.20;99.90;;;;;;5009183;28;20042;-63
2022/06/23 07:06:29;;;;;;;5.32;2.50;;;18.40;99.90;;;;;;5010949;28;20033;-62
2022/06/23 07:09:27;;;;;;;5.35;2.30;;;18.50;99.90;;;;;;5009185;28;20022;-63
2022/06/23 07:12:03;;;;;;;6.40;2.38;;;18.70;99.90;;;;;;5000390;28;20034;-62
2022/06/23 07:15:03;;;;;;;6.65;2.58;;;18.90;99.90;;;;;;5009235;28;20034;-63
2022/06/23 07:17:40;;;;;;;5.40;2.65;;;19.00;99.90;;;;;;4978990;28;20034;-63
2022/06/23 07:20:28;;;;;;;6.75;2.83;;;19.20;99.90;;;;;;5010516;28;20136;-63
2022/06/23 07:23:02;;;;;;;5.22;2.63;;;19.20;99.90;;;;;;5006061;28;20079;-62
2022/06/23 07:25:37;;;;;;;9.25;2.80;;;19.30;99.90;;;;;;5010483;28;20034;-62
2022/06/23 07:28:28;;;;;;;5.88;2.75;;;19.30;99.90;;;;;;5007316;28;20032;-63
2022/06/23 07:31:03;;;;;;;14.80;2.78;;;19.40;99.90;;;;;;5007611;28;20434;-64
2022/06/23 07:33:40;;;;;;;7.32;2.95;;;19.40;99.90;;;;;;5006890;28;20107;-63
2022/06/23 07:36:19;;;;;;;10.02;3.42;;;19.50;99.90;;;;;;5004586;28;20030;-62
2022/06/23 07:39:12;;;;;;;6.65;2.80;;;19.60;99.90;;;;;;5003183;28;20552;-63
2022/06/23 07:41:52;;;;;;;9.38;2.50;;;19.70;99.90;;;;;;5005776;28;20080;-64
2022/06/23 07:44:24;;;;;;;7.63;2.42;;;19.70;99.90;;;;;;5010261;28;20033;-63
2022/06/23 07:46:50;;;;;;;9.02;2.83;;;19.70;99.90;;;;;;5007009;28;20539;-62
2022/06/23 07:49:17;;;;;;;7.88;2.65;;;19.80;99.90;;;;;;5010019;28;20780;-62
2022/06/23 07:51:43;;;;;;;5.85;2.60;;;19.90;99.90;;;;;;5008014;28;20021;-63
2022/06/23 07:54:17;;;;;;;4.88;2.63;;;19.90;99.90;;;;;;5010080;28;20049;-63
2022/06/23 07:56:43;;;;;;;9.50;3.47;;;20.10;99.90;;;;;;5004340;28;20026;-64
2022/06/23 07:59:12;;;;;;;13.38;3.45;;;20.20;99.90;;;;;;5009462;28;20033;-63
2022/06/23 08:01:50;;;;;;;6.82;4.05;;;20.40;99.90;;;;;;5007965;28;20030;-64
2022/06/23 08:05:05;;;;;;;7.95;3.05;;;20.50;99.90;;;;;;4998330;28;20038;-63
2022/06/23 08:07:32;;;;;;;5.82;2.22;;;20.60;99.90;;;;;;4981651;28;20494;-63
2022/06/23 08:10:03;;;;;;;4.70;2.55;;;20.80;99.90;;;;;;4998992;28;20018;-63
2022/06/23 08:12:55;;;;;;;9.40;2.88;;;20.90;99.90;;;;;;5009189;28;20030;-65
2022/06/23 08:18:40;;;;;;;6.50;2.67;;;20.80;99.90;;;;;;5005117;28;20040;-64
2022/06/23 08:21:15;;;;;;;8.23;3.25;;;20.80;99.90;;;;;;5006377;28;20052;-63
2022/06/23 08:24:02;;;;;;;6.18;3.40;;;20.70;99.90;;;;;;5013367;28;20030;-63
2022/06/23 08:26:29;;;;;;;10.68;3.60;;;20.70;99.90;;;;;;5008676;28;20030;-65
2022/06/23 08:29:00;;;;;;;10.25;3.67;;;20.60;99.90;;;;;;5008548;28;20026;-62
2022/06/23 08:31:28;;;;;;;13.15;3.65;;;20.60;99.90;;;;;;5009758;28;20061;-63
2022/06/23 08:33:56;;;;;;;8.10;3.90;;;20.60;99.90;;;;;;5006920;28;20113;-62
2022/06/23 08:36:28;;;;;;;6.35;3.00;;;20.40;99.90;;;;;;5009463;28;20022;-62
2022/06/23 08:39:02;;;;;;;8.93;3.10;;;20.60;99.90;;;;;;5008052;28;20029;-63
2022/06/23 08:41:54;;;;;;;5.80;3.15;;;20.90;99.90;;;;;;5008979;28;20473;-63
2022/06/23 08:44:38;;;;;;;12.18;5.25;;;21.10;99.90;;;;;;5009615;28;20437;-62
2022/06/23 08:47:16;;;;;;;6.95;3.08;;;21.30;99.90;;;;;;5002600;28;20108;-62
2022/06/23 08:50:11;;;;;;;8.50;3.47;;;21.50;99.90;;;;;;5001987;28;20096;-63
2022/06/23 08:53:05;;;;;;;9.68;4.53;;;21.30;99.90;;;;;;4998132;28;20026;-63
2022/06/23 08:55:38;;;;;;;8.45;3.90;;;21.30;99.90;;;;;;4989046;28;20505;-62
2022/06/23 08:58:29;;;;;;;13.98;4.53;;;21.50;99.90;;;;;;5009286;28;20478;-62
2022/06/23 09:01:22;;;;;;;7.80;3.75;;;21.50;99.90;;;;;;4999593;28;20053;-62
2022/06/23 09:04:09;;;;;;;6.20;3.17;;;21.70;99.90;;;;;;5021094;28;20038;-62
2022/06/23 09:07:03;;;;;;;8.32;3.70;;;21.70;99.90;;;;;;5000671;28;20022;-63
2022/06/23 09:09:43;;;;;;;10.55;3.88;;;21.70;99.90;;;;;;5009256;28;20033;-63
2022/06/23 09:12:32;;;;;;;7.70;3.70;;;21.90;99.90;;;;;;5012715;28;20543;-63
2022/06/23 09:15:35;;;;;;;14.55;3.60;;;22.10;99.90;;;;;;5011973;28;20320;-63
2022/06/23 09:18:25;;;;;;;8.70;3.47;;;22.30;99.90;;;;;;5012311;28;20034;-63
2022/06/23 09:21:15;;;;;;;16.45;5.80;;;22.40;99.90;;;;;;5011224;28;20157;-64
2022/06/23 09:24:00;;;;;;;5.75;3.40;;;22.40;99.90;;;;;;5001119;28;20022;-63
2022/06/23 09:26:45;;;;;;;9.30;4.18;;;22.40;99.90;;;;;;5012353;28;20049;-63
2022/06/23 09:29:14;;;;;;;8.50;4.03;;;22.50;99.90;;;;;;5012688;28;20026;-62
2022/06/23 09:31:58;;;;;;;4.93;3.10;;;22.70;99.90;;;;;;5010891;28;20515;-62
2022/06/23 09:34:53;;;;;;;10.45;4.20;;;22.60;99.90;;;;;;5012785;28;20045;-63
2022/06/23 09:37:38;;;;;;;12.35;4.07;;;22.50;99.90;;;;;;5007747;28;20022;-63
2022/06/23 09:40:26;;;;;;;8.50;3.90;;;22.40;99.90;;;;;;5011017;28;20414;-63
2022/06/23 09:43:10;;;;;;;7.15;4.00;;;22.40;99.90;;;;;;5010376;28;20433;-63
2022/06/23 09:45:46;;;;;;;7.07;3.67;;;22.50;99.90;;;;;;5010201;28;20069;-63
2022/06/23 09:48:25;;;;;;;5.47;3.83;;;22.60;99.90;;;;;;5012530;28;20022;-63
2022/06/23 09:51:06;;;;;;;8.40;3.70;;;23.00;99.90;;;;;;5002338;28;21013;-63
2022/06/23 09:54:15;;;;;;;9.02;3.83;;;23.30;99.90;;;;;;5008114;28;20032;-63
2022/06/23 09:57:00;;;;;;;5.25;3.92;;;23.20;99.90;;;;;;5005883;28;20052;-63
2022/06/23 09:59:40;;;;;;;6.28;3.13;;;23.40;99.90;;;;;;5011298;28;20498;-63
2022/06/23 10:02:15;;;;;;;7.10;3.33;;;23.30;99.90;;;;;;5010454;28;20029;-63
2022/06/23 10:04:57;;;;;;;5.72;2.95;;;23.40;99.90;;;;;;5009567;28;20125;-65
2022/06/23 10:07:41;;;;;;;8.00;3.10;;;23.40;99.90;;;;;;5011539;28;20100;-63
2022/06/23 10:10:35;;;;;;;5.57;3.88;;;23.40;99.90;;;;;;5005453;28;20429;-63
2022/06/23 10:13:18;;;;;;;9.10;3.97;;;23.60;99.90;;;;;;5004160;28;20029;-63
2022/06/23 10:15:52;;;;;;;6.63;3.20;;;24.00;99.90;;;;;;5010238;28;20445;-64
2022/06/23 10:18:42;;;;;;;5.90;3.42;;;24.20;99.90;;;;;;5012291;28;20036;-63
2022/06/23 10:21:08;;;;;;;8.43;3.72;;;24.40;99.90;;;;;;5007944;28;20038;-63
2022/06/23 10:24:02;;;;;;;7.25;3.45;;;24.70;99.90;;;;;;5010186;28;20037;-64
2022/06/23 10:26:49;;;;;;;8.90;3.47;;;25.10;99.90;;;;;;5010176;28;20107;-64
2022/06/23 10:29:48;;;;;;;8.38;3.78;;;25.40;99.90;;;;;;5011898;28;20496;-65
2022/06/23 10:32:45;;;;;;;8.57;3.55;;;25.50;99.90;;;;;;5008965;28;20050;-64
2022/06/23 10:35:19;;;;;;;6.97;3.28;;;25.50;99.90;;;;;;5005474;28;20041;-64
2022/06/23 10:38:21;;;;;;;6.75;3.28;;;25.60;99.90;;;;;;5003160;28;20116;-63
2022/06/23 10:41:06;;;;;;;;;;;25.80;99.90;;;;;;5000951;28;20370;-63
2022/06/23 10:43:47;;;;;;;6.90;3.33;;;25.70;99.90;;;;;;5008825;28;19929;-63
2022/06/23 10:46:30;;;;;;;8.60;3.15;;;26.10;99.90;;;;;;5011396;28;20120;-63
2022/06/23 10:49:25;;;;;;;7.78;3.20;;;26.40;99.50;;;;;;5011405;28;20108;-63
2022/06/23 10:52:10;;;;;;;7.22;3.53;;;26.50;99.50;;;;;;5007423;28;20997;-64
2022/06/23 10:54:42;;;;;;;8.30;4.25;;;26.00;99.10;;;;;;5009724;28;20038;-64
2022/06/23 10:57:31;;;;;;;7.00;3.20;;;25.80;99.60;;;;;;4990138;28;20478;-65
2022/06/23 11:00:18;;;;;;;6.97;3.50;;;25.90;99.70;;;;;;5011542;28;20044;-64
2022/06/23 11:03:02;;;;;;;5.80;3.08;;;25.70;99.90;;;;;;4999889;28;20041;-64
2022/06/23 11:06:04;;;;;;;5.88;3.58;;;25.80;99.90;;;;;;5010918;28;20021;-64
2022/06/23 11:09:10;;;;;;;5.72;3.22;;;25.90;99.70;;;;;;5002259;28;20453;-62
2022/06/23 11:11:36;;;;;;;6.40;3.17;;;26.00;98.60;;;;;;5008075;28;20022;-63
2022/06/23 11:14:11;;;;;;;4.80;2.92;;;26.30;98.70;;;;;;5011004;28;20038;-63
2022/06/23 11:16:45;;;;;;;7.25;3.45;;;26.50;98.10;;;;;;4998614;28;20034;-62
2022/06/23 11:19:35;;;;;;;15.65;4.20;;;26.70;98.20;;;;;;5009219;28;20033;-64
2022/06/23 11:22:21;;;;;;;6.38;3.20;;;27.20;97.10;;;;;;5003635;28;20089;-63
2022/06/23 11:25:02;;;;;;;9.02;2.92;;;27.80;95.80;;;;;;4995930;28;20063;-63
2022/06/23 11:27:37;;;;;;;8.85;3.10;;;28.20;94.50;;;;;;5010205;28;20025;-63
2022/06/23 11:30:15;;;;;;;7.93;3.63;;;28.60;93.70;;;;;;5003241;28;20486;-63
2022/06/23 11:33:08;;;;;;;7.70;3.03;;;28.50;92.90;;;;;;5008045;28;20069;-64
2022/06/23 11:35:44;;;;;;;7.00;3.10;;;27.60;93.80;;;;;;5007969;28;20490;-63
2022/06/23 11:38:53;;;;;;;4.55;3.08;;;26.90;94.10;;;;;;5009277;28;20029;-63
2022/06/23 11:41:22;;;;;;;11.10;3.35;;;27.20;93.90;;;;;;5004886;28;20109;-63
2022/06/23 11:44:16;;;;;;;9.40;3.90;;;27.90;93.20;;;;;;5008685;28;20022;-64
2022/06/23 11:46:45;;;;;;;9.15;5.57;;;28.10;92.60;;;;;;5006126;28;20076;-64
2022/06/23 11:49:17;;;;;;;9.20;5.43;;;27.30;95.80;;;;;;5010451;28;20026;-63
2022/06/23 11:51:56;;;;;;;11.60;5.80;;;26.80;97.00;;;;;;5008286;28;20038;-63
2022/06/23 11:54:45;;;;;;;11.32;5.50;;;26.70;97.80;;;;;;5010189;28;20486;-63
2022/06/23 11:57:17;;;;;;;13.85;5.50;;;27.30;96.90;;;;;;5009429;28;20030;-63
2022/06/23 12:00:03;;;;;;;7.68;4.88;;;27.80;95.50;;;;;;5008452;28;20112;-63
2022/06/23 12:02:29;;;;;;;9.30;4.88;;;28.10;94.80;;;;;;5005273;28;20034;-64
2022/06/23 12:05:03;;;;;;;9.05;5.43;;;28.00;94.10;;;;;;5008296;28;20390;-63
2022/06/23 12:08:02;;;;;;;13.65;5.65;;;27.80;95.00;;;;;;5006324;28;20061;-63
2022/06/23 12:10:32;;;;;;;15.98;7.90;;;27.70;95.80;;;;;;5009962;28;20129;-63
2022/06/23 12:13:02;;;;;;;18.83;7.60;;;26.90;97.40;;;;;;5009297;28;20033;-62
2022/06/23 12:15:32;;;;;;;18.95;8.60;;;26.50;99.20;;;;;;5009813;28;20494;-63
2022/06/23 12:18:19;;;;;;;24.48;10.10;;;26.20;99.70;;;;;;5009545;28;20029;-63
2022/06/23 12:20:45;;;;;;;18.48;9.75;;;25.80;99.90;;;;;;5001865;28;20175;-63
2022/06/23 12:23:15;;;;;;;24.35;10.65;;;25.60;99.90;;;;;;5009727;28;20440;-64
2022/06/23 12:26:02;;;;;;;15.68;9.13;;;25.40;99.90;;;;;;5000834;28;20038;-63
2022/06/23 12:28:40;;;;;;;15.60;9.50;;;25.10;99.90;;;;;;4997773;28;20037;-63
2022/06/23 12:31:27;;;;;;;20.48;11.32;;;24.70;99.90;;;;;;5009242;28;20533;-63
2022/06/23 12:33:52;;;;;;;19.65;10.93;;;24.70;99.90;;;;;;5007878;28;20046;-64
2022/06/23 12:36:42;;;;;;;26.23;11.18;;;24.70;99.90;;;;;;5009347;28;20029;-63
2022/06/23 12:39:36;;;;;;;23.65;11.88;;;24.50;99.90;;;;;;5009885;28;20501;-63
2022/06/23 12:42:09;;;;;;;23.00;10.70;;;24.90;99.90;;;;;;5000629;28;20033;-63
2022/06/23 12:44:57;;;;;;;18.50;9.32;;;25.20;99.90;;;;;;5009188;28;20106;-62
2022/06/23 12:48:06;;;;;;;19.38;10.38;;;26.10;99.90;;;;;;5002541;28;20030;-63
2022/06/23 12:50:32;;;;;;;21.83;10.80;;;27.00;96.80;;;;;;5000280;28;20033;-64
2022/06/23 12:53:27;;;;;;;15.60;10.60;;;26.40;97.50;;;;;;5013779;28;20033;-63
2022/06/23 12:56:02;;;;;;;13.32;9.07;;;25.70;98.50;;;;;;5001685;28;20042;-62
2022/06/23 12:58:50;;;;;;;19.45;9.07;;;26.00;98.80;;;;;;5013298;28;20124;-63
2022/06/23 13:01:28;;;;;;;23.50;10.15;;;26.70;97.30;;;;;;5013062;28;20513;-63
2022/06/23 13:04:00;;;;;;;21.60;9.65;;;27.80;94.40;;;;;;5010584;28;20026;-64
2022/06/23 13:06:49;;;;;;;23.02;9.82;;;28.00;93.50;;;;;;5005057;28;20092;-63
2022/06/23 13:09:37;;;;;;;17.75;9.98;;;27.80;93.10;;;;;;5007482;28;20034;-63
2022/06/23 13:12:27;;;;;;;16.42;8.30;;;27.40;93.50;;;;;;5012880;28;20033;-64
2022/06/23 13:15:12;;;;;;;14.10;8.85;;;26.90;94.40;;;;;;5011458;28;20041;-64
2022/06/23 13:17:56;;;;;;;21.13;9.38;;;26.70;94.40;;;;;;5011104;28;20026;-63
2022/06/23 13:20:44;;;;;;;17.05;9.10;;;26.60;94.20;;;;;;5012767;28;20040;-64
2022/06/23 13:23:17;;;;;;;16.83;8.75;;;26.10;95.50;;;;;;5012893;28;20116;-63
2022/06/23 13:25:48;;;;;;;22.40;9.27;;;25.80;96.00;;;;;;5004056;28;20057;-64
2022/06/23 13:28:29;;;;;;;;;;;25.70;96.40;;;;;;5012547;28;20087;-64
2022/06/23 13:31:00;;;;;;;16.23;7.75;;;25.80;97.00;;;;;;5010777;28;19955;-64
2022/06/23 13:33:45;;;;;;;15.45;9.13;;;26.00;96.40;;;;;;5011311;28;20033;-64
2022/06/23 13:36:39;;;;;;;21.60;8.82;;;25.70;95.80;;;;;;5012675;28;20073;-64
2022/06/23 13:39:11;;;;;;;13.65;7.28;;;25.30;97.20;;;;;;4999481;28;20095;-64
2022/06/23 13:41:36;;;;;;;;;;;25.60;96.80;;;;;;5010259;28;20045;-64
2022/06/23 13:44:08;;;;;;;16.52;7.85;;;26.40;95.80;;;;;;5012584;28;19909;-64
2022/06/23 13:47:13;;;;;;;16.88;7.82;;;27.60;92.50;;;;;;5006701;28;20119;-63
2022/06/23 13:49:56;;;;;;;16.08;8.93;;;27.60;91.40;;;;;;4997301;28;20125;-64
2022/06/23 13:52:47;;;;;;;12.82;6.25;;;28.10;90.60;;;;;;5007683;28;20034;-64
2022/06/23 13:55:29;;;;;;;13.43;7.57;;;28.20;89.00;;;;;;5009315;28;20077;-63
2022/06/23 13:58:06;;;;;;;20.42;8.07;;;27.00;91.20;;;;;;5001609;28;20109;-63
2022/06/23 14:00:45;;;;;;;13.40;7.97;;;26.30;92.00;;;;;;5011373;28;20069;-63